createdAt,value
2018-08-17T00:00:26.180Z,97913.86
2018-08-17T00:02:54.683Z,97910.88
2018-08-17T00:05:23.278Z,97907.39
2018-08-17T00:07:51.797Z,97912.55
2018-08-17T00:10:20.298Z,97901.53
2018-08-17T00:12:48.767Z,97899.61
2018-08-17T00:15:17.302Z,97899.11
2018-08-17T00:17:46.172Z,97892.65
2018-08-17T00:20:14.762Z,97891.94
2018-08-17T00:22:43.274Z,97891.16
2018-08-17T00:25:11.810Z,97889.02
2018-08-17T00:27:40.305Z,97893.67
2018-08-17T00:30:09.442Z,97891.25
2018-08-17T00:32:37.928Z,97892.03
2018-08-17T00:35:06.516Z,97893.95
2018-08-17T00:37:35.053Z,97889.37
2018-08-17T00:40:03.622Z,97887.45
2018-08-17T00:42:32.125Z,97888.27
2018-08-17T00:45:00.713Z,97886.61
2018-08-17T00:47:29.227Z,97887.67
2018-08-17T00:49:57.694Z,97885.79
2018-08-17T00:52:26.213Z,97887.67
2018-08-17T00:54:54.713Z,97895.83
2018-08-17T00:57:23.265Z,97895.08
2018-08-17T00:59:51.754Z,97893.41
2018-08-17T01:02:20.293Z,97900.70
2018-08-17T01:04:48.777Z,97901.23
2018-08-17T01:07:17.302Z,97904.27
2018-08-17T01:09:45.753Z,97897.35
2018-08-17T01:12:14.281Z,97897.92
2018-08-17T01:14:42.774Z,97894.70
2018-08-17T01:17:11.296Z,97897.66
2018-08-17T01:19:39.758Z,97894.68
2018-08-17T01:22:08.261Z,97894.69
2018-08-17T01:24:36.721Z,97903.04
2018-08-17T01:27:05.332Z,97894.94
2018-08-17T01:29:33.799Z,97902.23
2018-08-17T01:32:02.342Z,97899.80
2018-08-17T01:34:30.810Z,97897.34
2018-08-17T01:36:59.316Z,97901.41
2018-08-17T01:39:27.797Z,97904.16
2018-08-17T01:41:56.302Z,97900.94
2018-08-17T01:44:24.817Z,97902.28
2018-08-17T01:46:53.314Z,97895.54
2018-08-17T01:49:21.790Z,97904.16
2018-08-17T01:51:50.279Z,97895.25
2018-08-17T01:54:18.773Z,97902.82
2018-08-17T01:56:47.270Z,97902.27
2018-08-17T01:59:15.728Z,97905.24
2018-08-17T02:01:44.261Z,97907.16
2018-08-17T02:04:12.749Z,97905.52
2018-08-17T02:06:41.237Z,97896.38
2018-08-17T02:09:11.509Z,97899.06
2018-08-17T02:11:43.262Z,97896.36
2018-08-17T02:14:11.733Z,97896.09
2018-08-17T02:16:40.540Z,97889.91
2018-08-17T02:19:10.151Z,97896.12
2018-08-17T02:21:38.682Z,97890.99
2018-08-17T02:24:07.167Z,97891.27
2018-08-17T02:26:35.682Z,97888.28
2018-08-17T02:29:04.181Z,97884.52
2018-08-17T02:31:32.685Z,97882.64
2018-08-17T02:34:01.170Z,97885.31
2018-08-17T02:36:29.689Z,97884.23
2018-08-17T02:38:58.161Z,97888.54
2018-08-17T02:41:27.037Z,97881.53
2018-08-17T02:43:55.549Z,97880.20
2018-08-17T02:46:24.069Z,97873.19
2018-08-17T02:48:52.564Z,97875.08
2018-08-17T02:51:21.071Z,97873.18
2018-08-17T02:53:49.597Z,97866.20
2018-08-17T02:56:18.066Z,97867.83
2018-08-17T02:58:46.541Z,97870.26
2018-08-17T03:01:15.034Z,97865.65
2018-08-17T03:03:43.536Z,97866.19
2018-08-17T03:06:11.989Z,97858.39
2018-08-17T03:08:40.525Z,97859.48
2018-08-17T03:11:08.996Z,97860.55
2018-08-17T03:13:37.520Z,97867.30
2018-08-17T03:16:06.001Z,97863.23
2018-08-17T03:18:34.523Z,97864.03
2018-08-17T03:21:03.013Z,97870.25
2018-08-17T03:23:31.526Z,97865.38
2018-08-17T03:25:59.998Z,97867.02
2018-08-17T03:28:28.531Z,97863.23
2018-08-17T03:30:57.056Z,97869.98
2018-08-17T03:33:25.570Z,97871.02
2018-08-17T03:35:54.049Z,97875.59
2018-08-17T03:38:22.583Z,97876.38
2018-08-17T03:40:51.084Z,97871.27
2018-08-17T03:43:19.598Z,97880.95
2018-08-17T03:45:48.073Z,97878.53
2018-08-17T03:48:16.622Z,97879.90
2018-08-17T03:50:45.102Z,97873.66
2018-08-17T03:53:13.624Z,97871.48
2018-08-17T03:55:42.129Z,97876.61
2018-08-17T03:58:10.636Z,97874.16
2018-08-17T04:00:39.106Z,97875.53
2018-08-17T04:03:07.690Z,97875.51
2018-08-17T04:05:36.184Z,97876.61
2018-08-17T04:08:04.737Z,97879.04
2018-08-17T04:10:33.202Z,97880.67
2018-08-17T04:13:01.715Z,97878.47
2018-08-17T04:15:30.212Z,97889.56
2018-08-17T04:17:58.778Z,97887.89
2018-08-17T04:20:27.265Z,97890.58
2018-08-17T04:22:55.778Z,97895.48
2018-08-17T04:25:24.544Z,97893.08
2018-08-17T04:27:53.031Z,97895.27
2018-08-17T04:30:21.558Z,97896.87
2018-08-17T04:32:50.065Z,97904.37
2018-08-17T04:35:18.567Z,97899.00
2018-08-17T04:37:47.054Z,97903.55
2018-08-17T04:40:15.518Z,97910.72
2018-08-17T04:42:44.054Z,97910.18
2018-08-17T04:45:12.557Z,97909.39
2018-08-17T04:47:41.074Z,97912.34
2018-08-17T04:50:10.290Z,97905.64
2018-08-17T04:52:39.489Z,97909.41
2018-08-17T04:55:08.417Z,97906.00
2018-08-17T04:57:36.985Z,97908.70
2018-08-17T05:00:07.293Z,97913.29
2018-08-17T05:02:36.047Z,97920.05
2018-08-17T05:05:04.857Z,97917.62
2018-08-17T05:07:33.566Z,97928.70
2018-08-17T05:10:02.622Z,97922.22
2018-08-17T05:12:31.109Z,97929.50
2018-08-17T05:14:59.612Z,97930.05
2018-08-17T05:17:28.076Z,97928.98
2018-08-17T05:19:56.584Z,97925.20
2018-08-17T05:22:25.064Z,97929.78
2018-08-17T05:24:53.607Z,97931.66
2018-08-17T05:27:22.127Z,97928.20
2018-08-17T05:29:50.628Z,97931.13
2018-08-17T05:32:19.167Z,97936.78
2018-08-17T05:34:47.676Z,97939.47
2018-08-17T05:37:16.174Z,97935.70
2018-08-17T05:39:44.682Z,97940.80
2018-08-17T05:42:13.193Z,97948.89
2018-08-17T05:44:41.765Z,97950.77
2018-08-17T05:47:10.338Z,97955.02
2018-08-17T05:49:39.057Z,97952.59
2018-08-17T05:52:08.100Z,97958.77
2018-08-17T05:54:36.598Z,97954.40
2018-08-17T05:57:05.260Z,97962.45
2018-08-17T05:59:34.385Z,97962.97
2018-08-17T06:02:02.925Z,97960.30
2018-08-17T06:04:32.038Z,97962.91
2018-08-17T06:07:00.513Z,97966.93
2018-08-17T06:09:29.365Z,97960.36
2018-08-17T06:11:59.211Z,97955.88
2018-08-17T06:14:27.794Z,97962.28
2018-08-17T06:16:56.901Z,97959.01
2018-08-17T06:19:25.543Z,97963.98
2018-08-17T06:21:54.058Z,97960.45
2018-08-17T06:24:29.786Z,97959.71
2018-08-17T06:26:58.426Z,97958.97
2018-08-17T06:29:26.952Z,97959.32
2018-08-17T06:31:55.658Z,97961.22
2018-08-17T06:34:24.414Z,97959.08
2018-08-17T06:36:52.905Z,97959.89
2018-08-17T06:39:21.441Z,97949.73
2018-08-17T06:41:49.970Z,97954.89
2018-08-17T06:44:18.510Z,97959.27
2018-08-17T06:46:47.049Z,97956.99
2018-08-17T06:49:15.612Z,97962.31
2018-08-17T06:51:44.137Z,97962.16
2018-08-17T06:54:12.727Z,97961.63
2018-08-17T06:56:41.254Z,97959.19
2018-08-17T06:59:09.822Z,97955.34
2018-08-17T07:01:38.371Z,97967.00
2018-08-17T07:04:07.379Z,97960.89
2018-08-17T07:06:35.908Z,97964.70
2018-08-17T07:09:06.070Z,97963.70
2018-08-17T07:11:34.631Z,97962.52
2018-08-17T07:14:03.146Z,97973.27
2018-08-17T07:16:31.716Z,97968.14
2018-08-17T07:19:00.331Z,97968.84
2018-08-17T07:21:28.926Z,97966.05
2018-08-17T07:23:57.776Z,97971.86
2018-08-17T07:26:28.148Z,97972.78
2018-08-17T07:28:56.736Z,97966.56
2018-08-17T07:31:25.557Z,97964.60
2018-08-17T07:33:54.210Z,97959.14
2018-08-17T07:36:22.846Z,97970.56
2018-08-17T07:38:51.381Z,97965.08
2018-08-17T07:41:19.889Z,97966.48
2018-08-17T07:43:48.341Z,97970.64
2018-08-17T07:46:16.827Z,97972.27
2018-08-17T07:48:45.263Z,97976.23
2018-08-17T07:51:13.744Z,97978.59
2018-08-17T07:53:42.189Z,97975.68
2018-08-17T07:56:10.674Z,97980.97
2018-08-17T07:58:39.153Z,97982.50
2018-08-17T08:01:07.999Z,97983.55
2018-08-17T08:03:36.474Z,97987.48
2018-08-17T08:06:04.962Z,97986.20
2018-08-17T08:08:33.425Z,97986.08
2018-08-17T08:11:01.970Z,97986.70
2018-08-17T08:13:30.387Z,97986.63
2018-08-17T08:15:58.931Z,97996.42
2018-08-17T08:18:27.415Z,97996.84
2018-08-17T08:20:55.927Z,97993.41
2018-08-17T08:23:27.277Z,97994.32
2018-08-17T08:25:56.235Z,97995.69
2018-08-17T08:28:24.717Z,97992.66
2018-08-17T08:30:53.257Z,98001.75
2018-08-17T08:33:21.894Z,97994.75
2018-08-17T08:35:50.838Z,97990.81
2018-08-17T08:38:19.633Z,97993.68
2018-08-17T08:40:48.625Z,97995.61
2018-08-17T08:43:17.121Z,97993.98
2018-08-17T08:45:45.649Z,97996.42
2018-08-17T08:48:14.081Z,97993.30
2018-08-17T08:50:42.617Z,97995.34
2018-08-17T08:53:11.129Z,97989.80
2018-08-17T08:55:39.623Z,97996.34
2018-08-17T08:58:09.085Z,97988.34
2018-08-17T09:00:37.574Z,97979.11
2018-08-17T09:03:06.951Z,97981.56
2018-08-17T09:05:35.464Z,97987.23
2018-08-17T09:08:04.125Z,97981.22
2018-08-17T09:10:32.557Z,97983.05
2018-08-17T09:14:25.425Z,97985.17
2018-08-17T09:16:53.920Z,97977.02
2018-08-17T09:19:22.402Z,97983.44
2018-08-17T09:21:50.912Z,97981.35
2018-08-17T09:24:19.391Z,97980.92
2018-08-17T09:26:47.868Z,97972.14
2018-08-17T09:29:38.154Z,97973.58
2018-08-17T09:32:06.799Z,97979.14
2018-08-17T09:34:35.848Z,97972.17
2018-08-17T09:37:04.541Z,97976.28
2018-08-17T09:39:33.054Z,97964.45
2018-08-17T09:42:01.599Z,97967.00
2018-08-17T09:44:30.030Z,97967.38
2018-08-17T09:46:58.534Z,97968.30
2018-08-17T09:49:27.929Z,97965.55
2018-08-17T09:51:56.422Z,97968.36
2018-08-17T09:54:24.883Z,97969.33
2018-08-17T09:56:53.385Z,97953.69
2018-08-17T09:59:21.842Z,97955.23
2018-08-17T10:01:55.490Z,97947.41
2018-08-17T10:04:29.333Z,97952.63
2018-08-17T10:07:03.110Z,97951.95
2018-08-17T10:09:36.898Z,97950.70
2018-08-17T10:12:05.366Z,97950.33
2018-08-17T10:17:13.079Z,97943.45
2018-08-17T10:19:41.522Z,97947.19
2018-08-17T10:22:10.221Z,97948.50
2018-08-17T10:24:38.518Z,97950.17
2018-08-17T10:27:07.073Z,97941.80
2018-08-17T10:29:35.585Z,97948.34
2018-08-17T10:32:04.067Z,97941.65
2018-08-17T10:34:35.588Z,97937.41
2018-08-17T10:37:04.077Z,97934.67
2018-08-17T10:39:33.305Z,97945.16
2018-08-17T10:42:01.774Z,97943.48
2018-08-17T10:44:30.274Z,97939.25
2018-08-17T10:46:59.300Z,97932.10
2018-08-17T10:49:27.759Z,97939.27
2018-08-17T10:51:57.085Z,97938.91
2018-08-17T10:54:25.825Z,97939.36
2018-08-17T10:56:54.379Z,97934.11
2018-08-17T10:59:22.860Z,97928.31
2018-08-17T11:01:52.232Z,97934.70
2018-08-17T11:04:20.713Z,97938.91
2018-08-17T11:06:49.215Z,97938.05
2018-08-17T11:09:17.702Z,97931.41
2018-08-17T11:11:46.142Z,97933.11
2018-08-17T11:14:14.638Z,97927.15
2018-08-17T11:16:43.101Z,97929.59
2018-08-17T11:19:11.572Z,97926.48
2018-08-17T11:21:40.034Z,97925.91
2018-08-17T11:24:11.947Z,97919.16
2018-08-17T11:26:40.389Z,97920.56
2018-08-17T11:29:08.881Z,97925.20
2018-08-17T11:31:37.857Z,97913.13
2018-08-17T11:34:06.418Z,97909.61
2018-08-17T11:36:34.945Z,97907.81
2018-08-17T11:39:03.590Z,97908.61
2018-08-17T11:41:32.122Z,97909.72
2018-08-17T11:44:03.811Z,97908.08
2018-08-17T11:46:32.586Z,97909.41
2018-08-17T11:49:01.091Z,97920.70
2018-08-17T11:51:29.826Z,97922.66
2018-08-17T11:53:58.411Z,97907.48
2018-08-17T11:56:26.853Z,97917.45
2018-08-17T11:58:55.391Z,97912.62
2018-08-17T12:01:26.924Z,97917.84
2018-08-17T12:03:55.579Z,97913.55
2018-08-17T12:06:24.352Z,97907.23
2018-08-17T12:08:52.986Z,97915.20
2018-08-17T12:11:21.494Z,97907.34
2018-08-17T12:13:50.011Z,97907.31
2018-08-17T12:16:18.483Z,97909.02
2018-08-17T12:18:47.097Z,97900.66
2018-08-17T12:21:15.555Z,97897.84
2018-08-17T12:23:44.071Z,97888.00
2018-08-17T12:26:13.247Z,97890.26
2018-08-17T12:28:41.772Z,97894.42
2018-08-17T12:31:10.301Z,97893.30
2018-08-17T12:33:38.806Z,97891.19
2018-08-17T12:36:08.937Z,97890.79
2018-08-17T12:38:37.497Z,97883.06
2018-08-17T12:41:08.201Z,97890.52
2018-08-17T12:43:38.677Z,97883.13
2018-08-17T12:46:07.482Z,97883.06
2018-08-17T12:48:35.959Z,97881.35
2018-08-17T12:51:05.625Z,97885.02
2018-08-17T12:53:34.483Z,97881.97
2018-08-17T12:56:03.065Z,97880.63
2018-08-17T12:58:31.550Z,97874.23
2018-08-17T13:01:00.073Z,97868.06
2018-08-17T13:03:28.524Z,97875.20
2018-08-17T13:05:57.052Z,97876.47
2018-08-17T13:08:25.615Z,97877.81
2018-08-17T13:10:55.737Z,97874.37
2018-08-17T13:13:24.137Z,97874.83
2018-08-17T13:15:57.824Z,97877.27
2018-08-17T13:18:26.277Z,97870.20
2018-08-17T13:20:55.435Z,97865.30
2018-08-17T13:23:23.890Z,97861.79
2018-08-17T13:25:53.414Z,97860.52
2018-08-17T13:28:21.871Z,97857.88
2018-08-17T13:30:50.381Z,97855.45
2018-08-17T13:33:18.849Z,97847.30
2018-08-17T13:35:47.373Z,97848.59
2018-08-17T13:38:15.866Z,97845.84
2018-08-17T13:40:44.361Z,97843.98
2018-08-17T13:43:12.871Z,97845.12
2018-08-17T13:45:41.390Z,97846.94
2018-08-17T13:48:09.890Z,97843.58
2018-08-17T13:50:38.429Z,97842.30
2018-08-17T13:53:06.962Z,97836.08
2018-08-17T13:55:35.461Z,97841.50
2018-08-17T13:58:03.941Z,97830.33
2018-08-17T14:00:32.445Z,97832.38
2018-08-17T14:03:00.934Z,97830.20
2018-08-17T14:05:29.420Z,97827.39
2018-08-17T14:07:57.881Z,97827.64
2018-08-17T14:10:27.131Z,97820.66
2018-08-17T14:12:55.581Z,97821.77
2018-08-17T14:15:24.117Z,97822.80
2018-08-17T14:17:52.549Z,97822.05
2018-08-17T14:20:21.858Z,97817.94
2018-08-17T14:22:50.313Z,97816.68
2018-08-17T14:25:18.961Z,97821.66
2018-08-17T14:27:47.415Z,97818.84
2018-08-17T14:30:18.017Z,97817.35
2018-08-17T14:32:46.511Z,97813.58
2018-08-17T14:35:15.408Z,97811.16
2018-08-17T14:37:43.990Z,97811.53
2018-08-17T14:40:13.267Z,97812.16
2018-08-17T14:42:41.812Z,97800.03
2018-08-17T14:45:11.035Z,97805.81
2018-08-17T14:47:39.716Z,97807.20
2018-08-17T14:50:10.012Z,97798.69
2018-08-17T14:52:38.653Z,97805.70
2018-08-17T14:55:07.570Z,97802.58
2018-08-17T14:57:36.077Z,97797.11
2018-08-17T15:00:05.419Z,97800.02
2018-08-17T15:02:33.865Z,97793.91
2018-08-17T15:05:02.322Z,97796.48
2018-08-17T15:07:30.816Z,97801.50
2018-08-17T15:09:59.226Z,97795.20
2018-08-17T15:12:27.690Z,97784.17
2018-08-17T15:14:56.133Z,97783.57
2018-08-17T15:17:24.642Z,97786.77
2018-08-17T15:19:53.077Z,97788.16
2018-08-17T15:22:21.597Z,97783.70
2018-08-17T15:24:50.105Z,97784.64
2018-08-17T15:27:18.615Z,97779.38
2018-08-17T15:29:47.366Z,97779.80
2018-08-17T15:32:15.841Z,97776.25
2018-08-17T15:34:44.313Z,97775.89
2018-08-17T15:37:12.794Z,97784.58
2018-08-17T15:39:41.241Z,97783.18
2018-08-17T15:42:09.826Z,97776.77
2018-08-17T15:44:38.277Z,97774.44
2018-08-17T15:47:06.840Z,97778.79
2018-08-17T15:49:36.627Z,97776.23
2018-08-17T15:52:06.579Z,97772.93
2018-08-17T15:54:35.006Z,97777.15
2018-08-17T15:57:03.516Z,97781.70
2018-08-17T15:59:32.029Z,97772.03
2018-08-17T16:02:00.547Z,97777.55
2018-08-17T16:04:28.996Z,97776.27
2018-08-17T16:06:57.520Z,97772.03
2018-08-17T16:09:25.992Z,97773.17
2018-08-17T16:11:54.511Z,97769.83
2018-08-17T16:14:22.989Z,97775.55
2018-08-17T16:16:51.470Z,97778.50
2018-08-17T16:19:19.953Z,97778.54
2018-08-17T16:21:48.416Z,97765.20
2018-08-17T16:24:16.894Z,97767.30
2018-08-17T16:26:45.430Z,97771.64
2018-08-17T16:29:13.898Z,97770.66
2018-08-17T16:31:43.629Z,97767.29
2018-08-17T16:34:12.091Z,97763.40
2018-08-17T16:36:43.011Z,97770.70
2018-08-17T16:39:14.319Z,97766.48
2018-08-17T16:41:43.120Z,97766.78
2018-08-17T16:44:11.950Z,97767.14
2018-08-17T16:46:41.967Z,97766.01
2018-08-17T16:49:10.514Z,97767.41
2018-08-17T16:51:39.234Z,97765.70
2018-08-17T16:54:07.770Z,97764.08
2018-08-17T16:56:36.431Z,97770.36
2018-08-17T16:59:05.084Z,97768.94
2018-08-17T17:01:33.525Z,97767.00
2018-08-17T17:04:02.047Z,97773.66
2018-08-17T17:06:30.529Z,97773.72
2018-08-17T17:09:03.093Z,97770.20
2018-08-17T17:11:31.615Z,97770.52
2018-08-17T17:14:00.129Z,97775.36
2018-08-17T17:16:50.166Z,97770.59
2018-08-17T17:19:21.650Z,97767.39
2018-08-17T17:21:51.279Z,97766.52
2018-08-17T17:24:20.426Z,97770.23
2018-08-17T17:26:48.937Z,97771.86
2018-08-17T17:29:18.452Z,97772.62
2018-08-17T17:31:50.528Z,97767.68
2018-08-17T17:34:19.115Z,97769.43
2018-08-17T17:36:47.701Z,97773.56
2018-08-17T17:39:16.297Z,97779.58
2018-08-17T17:41:44.870Z,97785.22
2018-08-17T17:44:13.391Z,97784.63
2018-08-17T17:46:42.493Z,97787.25
2018-08-17T17:49:11.414Z,97791.38
2018-08-17T17:51:39.933Z,97785.42
2018-08-17T17:54:08.571Z,97794.31
2018-08-17T17:56:37.161Z,97795.53
2018-08-17T17:59:11.070Z,97791.38
2018-08-17T18:01:39.497Z,97796.23
2018-08-17T18:04:08.010Z,97800.14
2018-08-17T18:06:36.522Z,97799.70
2018-08-17T18:09:06.138Z,97807.95
2018-08-17T18:11:34.681Z,97810.88
2018-08-17T18:14:03.218Z,97818.94
2018-08-17T18:16:31.735Z,97816.08
2018-08-17T18:19:00.263Z,97818.52
2018-08-17T18:21:31.331Z,97817.84
2018-08-17T18:24:05.057Z,97822.25
2018-08-17T18:26:33.602Z,97831.49
2018-08-17T18:29:02.150Z,97831.45
2018-08-17T18:31:30.753Z,97839.27
2018-08-17T18:33:59.256Z,97839.91
2018-08-17T18:36:27.780Z,97839.19
2018-08-17T18:38:56.291Z,97845.38
2018-08-17T18:41:24.809Z,97848.95
2018-08-17T18:43:53.320Z,97849.50
2018-08-17T18:46:21.866Z,97850.73
2018-08-17T18:48:50.394Z,97846.41
2018-08-17T18:51:18.921Z,97846.90
2018-08-17T18:53:47.429Z,97855.00
2018-08-17T18:56:15.958Z,97857.45
2018-08-17T18:58:44.449Z,97865.02
2018-08-17T19:01:13.103Z,97862.28
2018-08-17T19:03:41.814Z,97877.16
2018-08-17T19:06:10.652Z,97870.45
2018-08-17T19:08:39.593Z,97871.55
2018-08-17T19:11:08.282Z,97880.33
2018-08-17T19:13:36.924Z,97886.70
2018-08-17T19:16:05.706Z,97881.01
2018-08-17T19:18:34.269Z,97886.80
2018-08-17T19:21:05.348Z,97889.44
2018-08-17T19:23:33.874Z,97894.58
2018-08-17T19:26:02.380Z,97898.61
2018-08-17T19:28:31.190Z,97901.66
2018-08-17T19:30:59.791Z,97903.58
2018-08-17T19:33:28.670Z,97905.11
2018-08-17T19:35:57.451Z,97908.33
2018-08-17T19:38:26.059Z,97909.20
2018-08-17T19:40:55.101Z,97914.31
2018-08-17T19:43:23.697Z,97914.44
2018-08-17T19:45:52.316Z,97910.89
2018-08-17T19:48:21.352Z,97915.14
2018-08-17T19:50:49.998Z,97913.93
2018-08-17T19:53:19.543Z,97917.36
2018-08-17T19:55:48.160Z,97919.57
2018-08-17T19:58:17.040Z,97921.41
2018-08-17T20:00:45.529Z,97922.07
2018-08-17T20:03:14.226Z,97919.72
2018-08-17T20:05:42.757Z,97912.62
2018-08-17T20:08:11.320Z,97929.72
2018-08-17T20:10:40.043Z,97923.69
2018-08-17T20:13:08.975Z,97925.69
2018-08-17T20:15:37.597Z,97918.16
2018-08-17T20:18:06.536Z,97921.60
2018-08-17T20:20:35.737Z,97917.28
2018-08-17T20:23:04.340Z,97924.09
2018-08-17T20:25:32.886Z,97927.58
2018-08-17T20:28:01.508Z,97926.17
2018-08-17T20:30:30.126Z,97925.31
2018-08-17T20:32:58.669Z,97933.48
2018-08-17T20:35:27.375Z,97933.43
2018-08-17T20:37:55.938Z,97940.46
2018-08-17T20:40:24.444Z,97942.39
2018-08-17T20:42:54.775Z,97941.69
2018-08-17T20:45:26.389Z,97947.50
2018-08-17T20:47:55.086Z,97944.02
2018-08-17T20:50:23.622Z,97947.80
2018-08-17T20:52:57.531Z,97949.32
2018-08-17T20:55:26.114Z,97950.53
2018-08-17T20:57:55.853Z,97949.80
2018-08-17T21:00:26.010Z,97950.53
2018-08-17T21:02:55.430Z,97943.27
2018-08-17T21:05:24.099Z,97947.94
2018-08-17T21:07:52.621Z,97949.48
2018-08-17T21:10:21.245Z,97945.72
2018-08-17T21:12:50.059Z,97951.39
2018-08-17T21:15:19.043Z,97950.58
2018-08-17T21:17:48.161Z,97957.38
2018-08-17T21:20:16.795Z,97961.76
2018-08-17T21:22:45.326Z,97979.52
2018-08-17T21:25:13.898Z,97984.43
2018-08-17T21:27:42.452Z,97983.00
2018-08-17T21:30:11.441Z,97975.34
2018-08-17T21:32:39.970Z,97985.31
2018-08-17T21:35:08.764Z,97987.21
2018-08-17T21:37:37.845Z,97987.21
2018-08-17T21:40:16.421Z,97985.48
2018-08-17T21:42:44.989Z,97988.63
2018-08-17T21:45:13.555Z,97991.95
2018-08-17T21:47:42.081Z,97990.52
2018-08-17T21:50:13.692Z,97990.86
2018-08-17T21:52:42.799Z,97992.94
2018-08-17T21:55:11.382Z,97994.59
2018-08-17T21:57:39.903Z,97995.27
2018-08-17T22:00:20.632Z,97993.03
2018-08-17T22:02:49.291Z,97985.37
2018-08-17T22:05:31.502Z,97986.03
2018-08-17T22:08:00.594Z,97991.46
2018-08-17T22:10:29.509Z,97988.05
2018-08-17T22:12:58.055Z,97992.88
2018-08-17T22:15:28.028Z,97992.22
2018-08-17T22:17:56.579Z,97992.73
2018-08-17T22:20:25.205Z,98013.11
2018-08-17T22:22:53.741Z,98011.41
2018-08-17T22:25:22.328Z,98001.30
2018-08-17T22:27:50.957Z,97995.36
2018-08-17T22:30:21.685Z,97983.00
2018-08-17T22:32:50.357Z,97990.99
2018-08-17T22:35:19.118Z,97991.75
2018-08-17T22:37:47.565Z,97999.41
2018-08-17T22:40:16.132Z,98016.19
2018-08-17T22:42:47.379Z,98011.01
2018-08-17T22:45:15.956Z,98014.45
2018-08-17T22:47:44.506Z,98014.11
2018-08-17T22:50:13.041Z,98015.58
2018-08-17T22:52:41.553Z,98017.18
2018-08-17T22:55:10.371Z,98018.70
2018-08-17T22:57:38.931Z,98021.86
2018-08-17T23:00:19.230Z,98028.00
2018-08-17T23:02:51.874Z,98037.77
2018-08-17T23:05:23.165Z,98042.79
2018-08-17T23:07:51.710Z,98028.48
2018-08-17T23:10:21.428Z,98036.60
2018-08-17T23:12:51.005Z,98044.56
2018-08-17T23:15:19.563Z,98048.20
2018-08-17T23:17:54.339Z,98041.98
2018-08-17T23:20:28.299Z,98046.28
2018-08-17T23:22:59.066Z,98046.26
2018-08-17T23:25:27.604Z,98047.55
2018-08-17T23:27:56.373Z,98048.84
2018-08-17T23:30:24.904Z,98053.32
2018-08-17T23:32:53.628Z,98050.31
2018-08-17T23:35:22.172Z,98052.26
2018-08-17T23:37:50.800Z,98048.42
2018-08-17T23:40:19.438Z,98044.20
2018-08-17T23:42:49.038Z,98047.20
2018-08-17T23:45:18.254Z,98049.67
2018-08-17T23:47:47.221Z,98043.63
2018-08-17T23:50:16.343Z,98051.19
2018-08-17T23:52:45.025Z,98042.70
2018-08-17T23:55:15.576Z,98054.22
2018-08-17T23:57:44.158Z,98044.66
